Time;durP1;ratioP1;P1;durP2;ratioP2;P2;SDS_P1;SDS_P2;PMS_P1;PMS_P2;Temp;Humidity;BMP_temperature;BMP_pressure;BME280_temperature;BME280_humidity;BME280_pressure;Samples;Min_cycle;Max_cycle;Signal;HPM_P1;HPM_P2
2023/09/18 00:00:49;;;;;;;9.55;8.70;;;;;;;;;;4974662;28;20686;-73
2023/09/18 00:03:17;;;;;;;9.55;8.85;;;;;;;;;;4969756;28;20046;-73
2023/09/18 00:05:43;;;;;;;9.93;9.23;;;;;;;;;;4966391;28;20097;-73
2023/09/18 00:08:08;;;;;;;10.02;9.32;;;;;;;;;;4969397;28;20034;-73
2023/09/18 00:10:35;;;;;;;9.77;8.95;;;;;;;;;;4965973;28;20039;-73
2023/09/18 00:13:01;;;;;;;10.40;9.40;;;;;;;;;;4969094;28;20113;-73
2023/09/18 00:15:26;;;;;;;10.40;9.70;;;;;;;;;;4969160;28;20522;-74
2023/09/18 00:17:52;;;;;;;10.07;9.38;;;;;;;;;;4967825;28;20046;-73
2023/09/18 00:20:18;;;;;;;10.07;9.38;;;;;;;;;;4971881;28;20073;-73
2023/09/18 00:22:44;;;;;;;10.25;9.45;;;;;;;;;;4969837;28;20035;-73
2023/09/18 00:25:11;;;;;;;10.50;9.70;;;;;;;;;;4968376;28;20067;-73
2023/09/18 00:27:36;;;;;;;10.82;9.88;;;;;;;;;;4982052;28;20417;-72
2023/09/18 00:30:03;;;;;;;10.20;9.40;;;;;;;;;;4996930;28;20058;-73
2023/09/18 00:32:30;;;;;;;10.25;9.45;;;;;;;;;;4990566;28;20035;-73
2023/09/18 00:34:55;;;;;;;11.00;10.05;;;;;;;;;;4964827;28;20097;-72
2023/09/18 00:37:21;;;;;;;10.43;9.63;;;;;;;;;;4987820;28;20038;-74
2023/09/18 00:39:46;;;;;;;10.88;9.90;;;;;;;;;;4972788;28;20512;-73
2023/09/18 00:42:13;;;;;;;10.52;9.73;;;;;;;;;;4990499;28;20046;-72
2023/09/18 00:44:41;;;;;;;11.00;9.70;;;;;;;;;;4969961;28;20039;-75
2023/09/18 00:47:11;;;;;;;10.77;9.95;;;;;;;;;;4976521;28;20034;-72
2023/09/18 00:49:40;;;;;;;10.07;9.38;;;;;;;;;;4988534;28;20038;-74
2023/09/18 00:52:07;;;;;;;10.43;9.43;;;;;;;;;;4972312;28;20420;-73
2023/09/18 00:54:33;;;;;;;10.45;9.55;;;;;;;;;;4990830;28;20113;-74
2023/09/18 00:56:59;;;;;;;10.77;9.98;;;;;;;;;;4970338;28;20485;-74
2023/09/18 00:59:25;;;;;;;10.23;9.32;;;;;;;;;;4979113;28;20050;-74
2023/09/18 01:01:51;;;;;;;10.50;9.70;;;;;;;;;;4996456;28;20031;-75
2023/09/18 01:04:17;;;;;;;11.02;9.50;;;;;;;;;;4999079;28;20088;-74
2023/09/18 01:06:42;;;;;;;10.35;9.48;;;;;;;;;;4984249;28;20053;-75
2023/09/18 01:09:14;;;;;;;10.18;9.48;;;;;;;;;;4964594;28;20043;-73
2023/09/18 01:11:50;;;;;;;11.20;10.18;;;;;;;;;;4997597;28;20074;-74
2023/09/18 01:14:28;;;;;;;10.98;10.07;;;;;;;;;;4966243;28;20397;-74
2023/09/18 01:16:57;;;;;;;10.55;9.57;;;;;;;;;;4963573;28;20042;-73
2023/09/18 01:19:36;;;;;;;10.65;9.77;;;;;;;;;;4966045;28;20077;-75
2023/09/18 01:22:02;;;;;;;10.93;9.73;;;;;;;;;;4990227;28;20030;-76
2023/09/18 01:24:27;;;;;;;10.50;9.57;;;;;;;;;;4980244;28;20089;-74
2023/09/18 01:26:53;;;;;;;11.20;10.05;;;;;;;;;;4974768;28;20034;-73
2023/09/18 01:29:19;;;;;;;11.30;10.05;;;;;;;;;;4988408;28;20053;-74
2023/09/18 01:31:48;;;;;;;10.50;9.70;;;;;;;;;;4971224;28;20039;-74
2023/09/18 01:34:16;;;;;;;10.77;9.50;;;;;;;;;;4972176;28;20035;-75
2023/09/18 01:36:44;;;;;;;10.95;10.05;;;;;;;;;;4964242;28;20066;-74
2023/09/18 01:39:11;;;;;;;10.60;9.65;;;;;;;;;;4986607;28;20655;-74
2023/09/18 01:41:39;;;;;;;10.88;9.98;;;;;;;;;;4969413;28;20781;-73
2023/09/18 01:44:05;;;;;;;10.43;9.65;;;;;;;;;;4995006;28;20105;-73
2023/09/18 01:46:35;;;;;;;13.68;9.57;;;;;;;;;;4974128;28;20223;-73
2023/09/18 01:49:03;;;;;;;9.98;9.15;;;;;;;;;;4970742;28;20034;-73
2023/09/18 01:51:29;;;;;;;10.25;9.40;;;;;;;;;;4962561;28;20046;-74
2023/09/18 01:53:55;;;;;;;10.38;9.57;;;;;;;;;;4995965;28;20120;-74
2023/09/18 01:56:21;;;;;;;10.32;9.38;;;;;;;;;;4988531;28;20046;-73
2023/09/18 01:58:47;;;;;;;10.75;9.82;;;;;;;;;;4966361;28;20420;-72
2023/09/18 02:01:13;;;;;;;10.00;9.20;;;;;;;;;;4991781;28;20034;-74
2023/09/18 02:03:41;;;;;;;10.15;9.30;;;;;;;;;;4968797;28;20086;-74
2023/09/18 02:06:08;;;;;;;9.65;8.95;;;;;;;;;;4986853;28;20038;-73
2023/09/18 02:08:34;;;;;;;14.50;10.88;;;;;;;;;;4973444;28;20035;-74
2023/09/18 02:11:00;;;;;;;14.32;12.93;;;;;;;;;;4964298;28;20050;-73
2023/09/18 02:13:26;;;;;;;13.90;12.70;;;;;;;;;;4994950;28;20448;-74
2023/09/18 02:15:51;;;;;;;12.68;11.65;;;;;;;;;;4971190;28;20102;-75
2023/09/18 02:18:17;;;;;;;13.23;11.93;;;;;;;;;;4970791;28;20038;-74
2023/09/18 02:20:47;;;;;;;11.77;10.60;;;;;;;;;;4981666;28;20085;-74
2023/09/18 02:23:13;;;;;;;12.32;11.20;;;;;;;;;;4981488;28;20063;-72
2023/09/18 02:25:40;;;;;;;11.77;10.70;;;;;;;;;;4988384;28;20046;-74
2023/09/18 02:28:06;;;;;;;12.73;10.82;;;;;;;;;;4951531;28;20678;-74
2023/09/18 02:30:32;;;;;;;13.00;10.73;;;;;;;;;;4994218;28;20038;-75
2023/09/18 02:32:57;;;;;;;11.48;10.48;;;;;;;;;;4964196;28;20102;-74
2023/09/18 02:35:23;;;;;;;11.00;9.93;;;;;;;;;;4982544;28;20045;-74
2023/09/18 02:37:49;;;;;;;11.40;10.23;;;;;;;;;;4961883;28;20035;-74
2023/09/18 02:40:14;;;;;;;11.93;10.15;;;;;;;;;;4995204;28;20125;-73
2023/09/18 02:42:40;;;;;;;10.70;9.95;;;;;;;;;;4962977;28;20130;-74
2023/09/18 02:45:06;;;;;;;10.90;10.05;;;;;;;;;;4954705;28;20031;-73
2023/09/18 02:47:33;;;;;;;12.57;11.27;;;;;;;;;;4959637;28;20047;-72
2023/09/18 02:49:59;;;;;;;11.40;10.50;;;;;;;;;;4973032;28;20095;-73
2023/09/18 02:52:24;;;;;;;11.30;10.40;;;;;;;;;;4962109;28;20034;-72
2023/09/18 02:54:50;;;;;;;11.63;10.50;;;;;;;;;;4982153;28;20085;-75
2023/09/18 02:57:16;;;;;;;12.35;11.10;;;;;;;;;;4955253;28;20484;-74
2023/09/18 02:59:42;;;;;;;12.55;11.45;;;;;;;;;;4963817;28;20033;-73
2023/09/18 03:02:07;;;;;;;11.60;10.70;;;;;;;;;;4955233;28;20033;-73
2023/09/18 03:04:33;;;;;;;12.45;11.35;;;;;;;;;;4973802;28;20030;-73
2023/09/18 03:06:59;;;;;;;12.57;11.45;;;;;;;;;;4971920;28;20574;-73
2023/09/18 03:09:25;;;;;;;12.40;11.20;;;;;;;;;;4971188;28;20055;-74
2023/09/18 03:11:51;;;;;;;12.07;10.93;;;;;;;;;;4958278;28;20074;-73
2023/09/18 03:14:17;;;;;;;12.35;11.25;;;;;;;;;;4963839;28;20039;-74
2023/09/18 03:16:43;;;;;;;12.05;10.73;;;;;;;;;;4955532;28;20564;-74
2023/09/18 03:19:09;;;;;;;11.77;10.77;;;;;;;;;;4953038;28;20029;-73
2023/09/18 03:21:37;;;;;;;11.90;10.80;;;;;;;;;;4958503;28;20053;-73
2023/09/18 03:24:03;;;;;;;11.50;10.60;;;;;;;;;;4970759;28;20047;-73
2023/09/18 03:26:28;;;;;;;11.57;10.68;;;;;;;;;;4958734;28;20035;-73
2023/09/18 03:28:54;;;;;;;14.80;10.85;;;;;;;;;;4970232;28;20114;-74
2023/09/18 03:31:20;;;;;;;11.77;10.77;;;;;;;;;;4962892;28;20035;-73
2023/09/18 03:33:46;;;;;;;13.55;10.70;;;;;;;;;;4978926;28;20042;-74
2023/09/18 03:36:13;;;;;;;12.55;11.00;;;;;;;;;;4955869;28;20105;-73
2023/09/18 03:38:39;;;;;;;12.32;11.32;;;;;;;;;;4974916;28;20126;-73
2023/09/18 03:41:06;;;;;;;12.35;11.00;;;;;;;;;;4978020;28;20050;-72
2023/09/18 03:43:32;;;;;;;11.80;10.63;;;;;;;;;;4992832;28;20038;-75
2023/09/18 03:46:07;;;;;;;12.20;10.90;;;;;;;;;;4961015;28;20082;-74
2023/09/18 03:48:38;;;;;;;12.73;11.40;;;;;;;;;;4975364;28;20039;-72
2023/09/18 03:51:08;;;;;;;12.65;10.98;;;;;;;;;;4937920;28;20027;-73
2023/09/18 03:53:34;;;;;;;11.85;10.85;;;;;;;;;;4952549;28;20046;-73
2023/09/18 03:56:00;;;;;;;11.27;10.30;;;;;;;;;;4953649;28;20035;-72
2023/09/18 03:58:26;;;;;;;12.18;10.88;;;;;;;;;;4969206;28;20039;-73
2023/09/18 04:00:52;;;;;;;11.00;10.02;;;;;;;;;;4954535;28;20767;-73
2023/09/18 04:03:18;;;;;;;12.02;10.80;;;;;;;;;;4992840;28;20043;-72
2023/09/18 04:05:44;;;;;;;11.70;10.50;;;;;;;;;;4953643;28;20031;-74
2023/09/18 04:08:10;;;;;;;11.55;10.30;;;;;;;;;;4970345;28;20054;-72
2023/09/18 04:10:36;;;;;;;10.50;9.50;;;;;;;;;;4961606;28;20118;-74
2023/09/18 04:13:03;;;;;;;10.85;9.82;;;;;;;;;;4962395;28;20061;-73
2023/09/18 04:15:30;;;;;;;11.23;10.00;;;;;;;;;;4971432;28;20377;-74
2023/09/18 04:17:56;;;;;;;11.32;10.30;;;;;;;;;;4993519;28;20118;-73
2023/09/18 04:20:25;;;;;;;11.40;10.20;;;;;;;;;;4980649;28;20062;-74
2023/09/18 04:23:20;;;;;;;11.93;10.73;;;;;;;;;;4990547;28;20038;-73
2023/09/18 04:25:46;;;;;;;12.55;10.82;;;;;;;;;;4970565;28;20066;-74
2023/09/18 04:28:13;;;;;;;11.60;10.15;;;;;;;;;;4954399;28;20034;-74
2023/09/18 04:30:39;;;;;;;12.00;10.85;;;;;;;;;;4989103;28;20059;-72
2023/09/18 04:33:05;;;;;;;11.75;10.70;;;;;;;;;;4970808;28;20675;-73
2023/09/18 04:35:31;;;;;;;13.10;11.35;;;;;;;;;;4991016;28;20038;-73
2023/09/18 04:37:59;;;;;;;12.63;11.43;;;;;;;;;;4964305;28;20109;-75
2023/09/18 04:40:26;;;;;;;12.20;10.38;;;;;;;;;;4970082;28;20046;-71
2023/09/18 04:42:52;;;;;;;13.50;10.45;;;;;;;;;;4967996;28;20077;-76
2023/09/18 04:45:18;;;;;;;15.57;10.85;;;;;;;;;;4984980;28;20051;-73
2023/09/18 04:47:44;;;;;;;11.45;10.02;;;;;;;;;;4981847;28;20088;-75
2023/09/18 04:50:10;;;;;;;12.02;10.20;;;;;;;;;;4996202;28;20105;-73
2023/09/18 04:52:36;;;;;;;11.63;10.00;;;;;;;;;;4984641;28;20030;-73
2023/09/18 04:55:05;;;;;;;10.93;9.63;;;;;;;;;;4969670;28;20038;-74
2023/09/18 04:57:31;;;;;;;12.50;10.30;;;;;;;;;;4984010;28;20073;-74
2023/09/18 04:59:56;;;;;;;10.82;9.85;;;;;;;;;;4982353;28;20645;-75
2023/09/18 05:02:25;;;;;;;13.55;9.82;;;;;;;;;;4965859;28;20050;-75
2023/09/18 05:04:51;;;;;;;12.68;10.50;;;;;;;;;;4982205;28;20039;-75
2023/09/18 05:07:17;;;;;;;14.20;10.00;;;;;;;;;;4987066;28;20039;-74
2023/09/18 05:09:42;;;;;;;11.40;10.30;;;;;;;;;;4968376;28;20376;-74
2023/09/18 05:12:13;;;;;;;14.80;10.68;;;;;;;;;;4971448;28;20118;-73
2023/09/18 05:14:43;;;;;;;12.02;10.50;;;;;;;;;;4983103;28;20661;-75
2023/09/18 05:17:15;;;;;;;12.88;10.15;;;;;;;;;;4971533;28;20062;-74
2023/09/18 05:19:40;;;;;;;12.82;10.48;;;;;;;;;;4964731;28;20049;-74
2023/09/18 05:22:06;;;;;;;11.30;10.30;;;;;;;;;;4966871;28;20035;-73
2023/09/18 05:24:32;;;;;;;10.57;9.68;;;;;;;;;;4970036;28;20110;-72
2023/09/18 05:26:58;;;;;;;11.27;10.13;;;;;;;;;;4969278;28;20071;-74
2023/09/18 05:29:24;;;;;;;11.63;10.00;;;;;;;;;;4967433;28;20524;-73
2023/09/18 05:31:49;;;;;;;10.23;9.20;;;;;;;;;;4969066;28;20046;-74
2023/09/18 05:34:15;;;;;;;13.02;10.30;;;;;;;;;;4967479;28;20034;-75
2023/09/18 05:36:41;;;;;;;11.07;9.90;;;;;;;;;;4966785;28;20139;-74
2023/09/18 05:39:11;;;;;;;11.55;10.30;;;;;;;;;;4980891;28;20054;-74
2023/09/18 05:41:37;;;;;;;11.30;10.27;;;;;;;;;;4968738;28;20034;-75
2023/09/18 05:44:04;;;;;;;12.10;10.10;;;;;;;;;;4963795;28;20552;-73
2023/09/18 05:46:30;;;;;;;10.63;9.70;;;;;;;;;;4968711;28;20054;-74
2023/09/18 05:48:57;;;;;;;14.98;10.07;;;;;;;;;;4969670;28;20089;-74
2023/09/18 05:51:23;;;;;;;10.35;9.65;;;;;;;;;;4965029;28;20576;-75
2023/09/18 05:53:49;;;;;;;14.68;10.20;;;;;;;;;;4964809;28;20035;-73
2023/09/18 05:56:17;;;;;;;15.35;9.70;;;;;;;;;;4985047;28;20056;-73
2023/09/18 05:58:42;;;;;;;13.57;9.93;;;;;;;;;;4983113;28;20092;-73
2023/09/18 06:01:08;;;;;;;10.48;9.48;;;;;;;;;;4963172;28;20038;-74
2023/09/18 06:03:35;;;;;;;11.10;10.07;;;;;;;;;;4966829;28;20035;-71
2023/09/18 06:06:05;;;;;;;14.48;10.18;;;;;;;;;;4972480;28;20031;-73
2023/09/18 06:08:31;;;;;;;14.07;9.68;;;;;;;;;;4967320;28;21363;-72
2023/09/18 06:10:57;;;;;;;10.75;9.38;;;;;;;;;;4993953;28;20578;-73
2023/09/18 06:13:27;;;;;;;10.23;9.23;;;;;;;;;;4968215;28;20038;-72
2023/09/18 06:15:54;;;;;;;10.38;9.48;;;;;;;;;;4963650;28;20114;-71
2023/09/18 06:18:21;;;;;;;10.13;9.18;;;;;;;;;;4964705;28;20478;-74
2023/09/18 06:20:48;;;;;;;12.73;9.07;;;;;;;;;;4966826;28;20038;-74
2023/09/18 06:23:13;;;;;;;10.18;9.02;;;;;;;;;;4963121;28;20156;-74
2023/09/18 06:25:39;;;;;;;10.45;9.50;;;;;;;;;;4967485;28;20125;-74
2023/09/18 06:28:05;;;;;;;13.45;9.80;;;;;;;;;;4966815;28;20659;-73
2023/09/18 06:30:33;;;;;;;12.70;9.20;;;;;;;;;;4962089;28;20039;-74
2023/09/18 06:32:59;;;;;;;13.38;9.88;;;;;;;;;;4966021;28;20093;-72
2023/09/18 06:35:25;;;;;;;11.00;9.75;;;;;;;;;;4967028;28;20049;-74
2023/09/18 06:37:50;;;;;;;13.10;9.02;;;;;;;;;;4965531;28;20035;-73
2023/09/18 06:40:17;;;;;;;13.18;9.55;;;;;;;;;;4993321;28;20046;-75
2023/09/18 06:42:42;;;;;;;11.98;9.25;;;;;;;;;;4966210;28;20045;-74
2023/09/18 06:45:12;;;;;;;13.38;8.90;;;;;;;;;;4962187;28;20041;-75
2023/09/18 06:47:40;;;;;;;10.10;8.90;;;;;;;;;;4966685;28;20030;-72
2023/09/18 06:50:06;;;;;;;14.73;9.80;;;;;;;;;;4965754;28;20045;-74
2023/09/18 06:52:31;;;;;;;12.10;8.88;;;;;;;;;;4966429;28;20034;-74
2023/09/18 06:55:00;;;;;;;11.63;8.20;;;;;;;;;;4966081;28;20605;-74
2023/09/18 06:57:25;;;;;;;13.13;9.73;;;;;;;;;;4966249;28;20042;-74
2023/09/18 06:59:51;;;;;;;15.27;11.25;;;;;;;;;;4965427;28;20045;-74
2023/09/18 07:02:17;;;;;;;9.05;8.13;;;;;;;;;;4962042;28;20042;-73
2023/09/18 07:04:45;;;;;;;10.40;8.43;;;;;;;;;;4964156;28;20509;-74
2023/09/18 07:07:15;;;;;;;8.90;7.90;;;;;;;;;;4964782;28;20042;-73
2023/09/18 07:09:41;;;;;;;11.30;8.38;;;;;;;;;;4956950;28;20062;-74
2023/09/18 07:12:09;;;;;;;17.05;8.63;;;;;;;;;;4962766;28;20038;-75
2023/09/18 07:14:35;;;;;;;14.50;9.15;;;;;;;;;;4964144;28;20070;-75
2023/09/18 07:17:02;;;;;;;12.02;8.40;;;;;;;;;;4996631;28;20173;-74
2023/09/18 07:19:28;;;;;;;11.88;8.35;;;;;;;;;;4970287;28;20378;-74
2023/09/18 07:21:53;;;;;;;12.63;9.00;;;;;;;;;;4963507;28;20518;-74
2023/09/18 07:24:20;;;;;;;13.80;8.55;;;;;;;;;;4969816;28;20424;-75
2023/09/18 07:26:47;;;;;;;9.73;8.18;;;;;;;;;;4966378;28;20046;-74
2023/09/18 07:29:16;;;;;;;10.55;8.20;;;;;;;;;;4967235;28;20043;-73
2023/09/18 07:31:42;;;;;;;10.20;8.80;;;;;;;;;;4968851;28;20030;-74
2023/09/18 07:34:09;;;;;;;11.05;8.25;;;;;;;;;;4965962;28;20027;-73
2023/09/18 07:36:35;;;;;;;9.27;8.32;;;;;;;;;;4969286;28;20030;-73
2023/09/18 07:39:00;;;;;;;13.20;8.57;;;;;;;;;;4963354;28;20049;-75
2023/09/18 07:41:26;;;;;;;9.57;8.30;;;;;;;;;;4966766;28;20034;-74
2023/09/18 07:43:51;;;;;;;10.27;8.32;;;;;;;;;;4968069;28;20030;-75
2023/09/18 07:46:17;;;;;;;13.48;8.25;;;;;;;;;;4965848;28;20030;-73
2023/09/18 07:48:42;;;;;;;9.52;8.38;;;;;;;;;;4964612;28;20034;-72
2023/09/18 07:51:16;;;;;;;9.38;8.45;;;;;;;;;;4966017;28;20031;-74
2023/09/18 07:53:42;;;;;;;8.88;8.07;;;;;;;;;;4965049;28;20042;-74
2023/09/18 07:56:08;;;;;;;9.68;8.15;;;;;;;;;;4968164;28;20519;-74
2023/09/18 07:58:38;;;;;;;9.43;7.72;;;;;;;;;;4964991;28;20066;-75
2023/09/18 08:01:05;;;;;;;9.50;8.07;;;;;;;;;;4964744;28;20043;-75
2023/09/18 08:03:32;;;;;;;9.15;7.47;;;;;;;;;;4971306;28;20038;-74
2023/09/18 08:05:57;;;;;;;8.57;7.65;;;;;;;;;;4964703;28;20118;-73
2023/09/18 08:08:24;;;;;;;8.60;7.80;;;;;;;;;;4965566;28;20030;-73
2023/09/18 08:10:50;;;;;;;8.70;7.57;;;;;;;;;;4958689;28;20443;-74
2023/09/18 08:13:17;;;;;;;9.65;7.40;;;;;;;;;;4966031;28;20138;-72
2023/09/18 08:15:43;;;;;;;8.20;7.20;;;;;;;;;;4972039;28;20482;-73
2023/09/18 08:18:13;;;;;;;9.10;7.38;;;;;;;;;;4968776;28;20786;-73
2023/09/18 08:20:42;;;;;;;8.30;7.47;;;;;;;;;;4969448;28;20034;-74
2023/09/18 08:23:11;;;;;;;9.85;7.70;;;;;;;;;;4967433;28;20035;-74
2023/09/18 08:25:37;;;;;;;10.00;7.90;;;;;;;;;;4971522;28;20030;-74
2023/09/18 08:28:04;;;;;;;8.00;7.28;;;;;;;;;;4974057;28;20030;-74
2023/09/18 08:30:30;;;;;;;9.55;7.70;;;;;;;;;;4970133;28;20042;-72
2023/09/18 08:32:55;;;;;;;11.70;7.88;;;;;;;;;;4969959;28;20080;-73
2023/09/18 08:35:22;;;;;;;8.57;7.72;;;;;;;;;;4971350;28;20031;-74
2023/09/18 08:37:48;;;;;;;11.30;7.65;;;;;;;;;;4969555;28;20027;-72
2023/09/18 08:40:14;;;;;;;8.38;7.72;;;;;;;;;;4971364;28;20042;-74
2023/09/18 08:42:47;;;;;;;9.23;8.30;;;;;;;;;;4967401;28;20674;-74
2023/09/18 08:45:36;;;;;;;8.88;7.65;;;;;;;;;;4968349;28;20038;-74
2023/09/18 08:48:02;;;;;;;;;;;;;;;;;;4966444;28;20027;-72
2023/09/18 08:50:29;;;;;;;8.30;7.60;;;;;;;;;;4971872;28;20430;-72
2023/09/18 08:52:55;;;;;;;9.75;7.95;;;;;;;;;;4970681;28;20038;-72
2023/09/18 08:55:22;;;;;;;10.38;7.85;;;;;;;;;;4969763;28;20088;-73
2023/09/18 08:57:49;;;;;;;8.02;7.43;;;;;;;;;;4984249;28;20080;-73
2023/09/18 09:00:17;;;;;;;8.00;7.30;;;;;;;;;;4967398;28;20708;-73
2023/09/18 09:02:48;;;;;;;11.77;8.53;;;;;;;;;;4986407;28;20162;-74
2023/09/18 09:05:14;;;;;;;9.63;8.57;;;;;;;;;;4972000;28;20298;-72
2023/09/18 09:07:40;;;;;;;9.73;8.80;;;;;;;;;;4967826;28;20038;-72
2023/09/18 09:10:06;;;;;;;9.98;9.02;;;;;;;;;;4966946;28;20027;-72
2023/09/18 09:12:48;;;;;;;10.40;9.02;;;;;;;;;;4970106;28;20070;-72
2023/09/18 09:15:14;;;;;;;13.68;9.55;;;;;;;;;;4969927;28;20500;-72
2023/09/18 09:17:41;;;;;;;10.13;9.48;;;;;;;;;;4984234;28;20146;-73
2023/09/18 09:20:14;;;;;;;12.90;11.77;;;;;;;;;;4965192;28;20451;-73
2023/09/18 09:22:41;;;;;;;13.13;11.77;;;;;;;;;;4968223;28;20080;-71
2023/09/18 09:25:31;;;;;;;12.27;11.18;;;;;;;;;;4966000;28;20039;-72
2023/09/18 09:27:58;;;;;;;12.63;11.30;;;;;;;;;;4963692;28;20097;-72
2023/09/18 09:30:26;;;;;;;12.35;11.40;;;;;;;;;;4966387;28;20129;-72
2023/09/18 09:32:54;;;;;;;11.80;10.80;;;;;;;;;;4964710;28;20043;-72
2023/09/18 09:35:27;;;;;;;11.05;10.05;;;;;;;;;;4964982;28;20027;-72
2023/09/18 09:37:57;;;;;;;11.00;9.90;;;;;;;;;;4963803;28;20066;-72
2023/09/18 09:40:24;;;;;;;11.07;9.98;;;;;;;;;;4969092;28;20038;-72
2023/09/18 09:43:00;;;;;;;11.13;10.23;;;;;;;;;;4967482;28;20038;-72
2023/09/18 09:45:29;;;;;;;10.77;10.00;;;;;;;;;;4962145;28;20113;-72
2023/09/18 09:47:56;;;;;;;10.65;9.85;;;;;;;;;;4967003;28;20487;-72
2023/09/18 09:50:25;;;;;;;10.65;9.82;;;;;;;;;;4968544;28;20728;-72
2023/09/18 09:52:53;;;;;;;10.52;9.50;;;;;;;;;;4964888;28;20042;-73
2023/09/18 09:55:20;;;;;;;10.75;9.73;;;;;;;;;;4965609;28;20047;-73
2023/09/18 09:57:52;;;;;;;11.35;9.75;;;;;;;;;;4965726;28;20049;-73
2023/09/18 10:00:27;;;;;;;10.73;9.93;;;;;;;;;;4967434;28;20035;-72
2023/09/18 10:02:58;;;;;;;10.98;10.27;;;;;;;;;;4963175;28;20620;-73
2023/09/18 10:05:32;;;;;;;11.32;10.30;;;;;;;;;;4972229;28;20039;-73
2023/09/18 10:08:00;;;;;;;11.60;9.98;;;;;;;;;;4965329;28;20039;-73
2023/09/18 10:10:31;;;;;;;10.93;10.23;;;;;;;;;;4961683;28;20042;-72
2023/09/18 10:13:02;;;;;;;10.57;9.68;;;;;;;;;;4964681;28;20043;-73
2023/09/18 10:15:31;;;;;;;10.23;9.40;;;;;;;;;;4981923;28;20038;-73
2023/09/18 10:18:00;;;;;;;10.80;9.80;;;;;;;;;;4978438;28;20113;-73
2023/09/18 10:20:27;;;;;;;10.13;9.25;;;;;;;;;;4965443;28;20065;-72
2023/09/18 10:22:57;;;;;;;10.55;9.63;;;;;;;;;;4961110;28;20042;-73
2023/09/18 10:25:31;;;;;;;9.40;8.70;;;;;;;;;;4965660;28;20058;-72
2023/09/18 10:28:01;;;;;;;9.93;9.02;;;;;;;;;;4958918;28;20762;-73
2023/09/18 10:30:28;;;;;;;10.15;9.23;;;;;;;;;;4963925;28;20475;-73
2023/09/18 10:32:55;;;;;;;9.65;8.95;;;;;;;;;;4964483;28;20035;-72
2023/09/18 10:35:21;;;;;;;9.88;9.10;;;;;;;;;;4965139;28;20031;-73
2023/09/18 10:37:48;;;;;;;9.68;8.77;;;;;;;;;;4964129;28;20453;-73
2023/09/18 10:40:15;;;;;;;9.50;8.80;;;;;;;;;;4963999;28;20077;-73
2023/09/18 10:42:42;;;;;;;10.23;8.90;;;;;;;;;;4965068;28;20039;-73
2023/09/18 10:45:12;;;;;;;10.25;9.25;;;;;;;;;;4961203;28;20035;-73
2023/09/18 10:47:45;;;;;;;9.27;8.65;;;;;;;;;;4964442;28;20451;-73
2023/09/18 10:50:10;;;;;;;8.70;8.13;;;;;;;;;;4966025;28;20038;-73
2023/09/18 10:52:43;;;;;;;10.13;9.32;;;;;;;;;;4964757;28;20590;-73
2023/09/18 10:55:11;;;;;;;11.15;10.00;;;;;;;;;;4964616;28;20039;-73
2023/09/18 10:57:38;;;;;;;10.40;9.70;;;;;;;;;;4964233;28;20042;-73
2023/09/18 11:00:13;;;;;;;10.40;9.63;;;;;;;;;;4963767;28;20041;-73
2023/09/18 11:02:42;;;;;;;10.45;9.85;;;;;;;;;;4961335;28;20030;-73
2023/09/18 11:05:07;;;;;;;10.18;9.38;;;;;;;;;;4962463;28;20046;-73
2023/09/18 11:07:33;;;;;;;10.32;9.40;;;;;;;;;;4966463;28;20030;-73
2023/09/18 11:09:59;;;;;;;10.18;9.48;;;;;;;;;;4961589;28;20069;-73
2023/09/18 11:12:44;;;;;;;11.32;9.63;;;;;;;;;;4962573;28;20138;-73
2023/09/18 11:15:30;;;;;;;10.65;9.77;;;;;;;;;;4992988;28;20034;-73
2023/09/18 11:18:00;;;;;;;10.95;9.95;;;;;;;;;;4962505;28;20038;-72
2023/09/18 11:20:28;;;;;;;10.95;10.25;;;;;;;;;;4960741;28;20043;-73
2023/09/18 11:23:16;;;;;;;10.40;9.70;;;;;;;;;;4963800;28;20276;-72
2023/09/18 11:25:47;;;;;;;10.87;10.00;;;;;;;;;;4963177;28;20112;-72
2023/09/18 11:28:18;;;;;;;10.93;10.23;;;;;;;;;;4963337;28;20039;-73
2023/09/18 11:30:57;;;;;;;11.30;10.40;;;;;;;;;;4964342;28;20428;-73
2023/09/18 11:33:45;;;;;;;10.50;9.80;;;;;;;;;;4965237;28;20049;-74
2023/09/18 11:36:32;;;;;;;10.63;9.83;;;;;;;;;;4976391;28;20026;-73
2023/09/18 11:39:05;;;;;;;11.30;10.32;;;;;;;;;;4962575;28;20290;-74
2023/09/18 11:41:38;;;;;;;11.07;10.23;;;;;;;;;;4965484;28;20613;-73
2023/09/18 11:44:13;;;;;;;11.68;10.68;;;;;;;;;;4964298;28;20058;-73
2023/09/18 11:46:40;;;;;;;11.57;10.18;;;;;;;;;;4978453;28;20389;-73
2023/09/18 11:49:09;;;;;;;11.20;10.38;;;;;;;;;;4967316;28;20041;-73
2023/09/18 11:51:35;;;;;;;10.88;10.07;;;;;;;;;;4969283;28;20039;-73
2023/09/18 11:54:03;;;;;;;11.00;10.07;;;;;;;;;;4969982;28;20027;-73
2023/09/18 11:56:40;;;;;;;10.45;9.77;;;;;;;;;;4967252;28;20117;-73
2023/09/18 11:59:06;;;;;;;10.90;10.10;;;;;;;;;;4966733;28;20062;-73
2023/09/18 12:01:41;;;;;;;10.73;10.00;;;;;;;;;;4964702;28;20046;-73
2023/09/18 12:04:11;;;;;;;10.40;9.60;;;;;;;;;;4970816;28;20039;-73
2023/09/18 12:06:39;;;;;;;11.13;10.23;;;;;;;;;;4964461;28;20027;-73
2023/09/18 12:09:05;;;;;;;10.10;9.50;;;;;;;;;;4964701;28;20034;-73
2023/09/18 12:11:35;;;;;;;9.88;9.27;;;;;;;;;;4958206;28;20061;-72
2023/09/18 12:14:05;;;;;;;11.02;10.30;;;;;;;;;;4966587;28;20077;-73
2023/09/18 12:16:30;;;;;;;11.05;10.15;;;;;;;;;;4966812;28;20038;-73
2023/09/18 12:18:56;;;;;;;10.90;10.10;;;;;;;;;;4964295;28;20096;-73
2023/09/18 12:21:22;;;;;;;10.70;10.00;;;;;;;;;;4965324;28;20055;-73
2023/09/18 12:23:48;;;;;;;11.48;10.52;;;;;;;;;;4964176;28;20070;-73
2023/09/18 12:26:15;;;;;;;11.10;10.30;;;;;;;;;;4964265;28;20046;-73
2023/09/18 12:28:42;;;;;;;11.18;10.38;;;;;;;;;;4961176;28;20122;-73
2023/09/18 12:31:15;;;;;;;10.65;9.85;;;;;;;;;;4964999;28;20066;-74
2023/09/18 12:33:47;;;;;;;10.90;10.20;;;;;;;;;;4963646;28;20035;-73
2023/09/18 12:36:18;;;;;;;11.23;10.13;;;;;;;;;;4965304;28;20738;-73
2023/09/18 12:38:54;;;;;;;11.50;10.70;;;;;;;;;;4966801;28;20092;-73
2023/09/18 12:41:20;;;;;;;13.02;11.80;;;;;;;;;;4967264;28;20042;-73
2023/09/18 12:43:46;;;;;;;12.95;10.70;;;;;;;;;;4973361;28;20046;-74
2023/09/18 12:46:12;;;;;;;11.55;10.68;;;;;;;;;;4966440;28;20037;-74
2023/09/18 12:48:45;;;;;;;11.55;10.75;;;;;;;;;;4978587;28;20113;-73
2023/09/18 12:51:11;;;;;;;11.35;10.30;;;;;;;;;;4974455;28;20092;-74
2023/09/18 12:53:37;;;;;;;12.05;10.40;;;;;;;;;;4973465;28;20141;-73
2023/09/18 12:56:08;;;;;;;10.73;9.70;;;;;;;;;;4965495;28;20444;-73
2023/09/18 12:58:34;;;;;;;10.48;9.77;;;;;;;;;;4971553;28;20046;-74
2023/09/18 13:01:07;;;;;;;10.80;10.00;;;;;;;;;;4974553;28;20060;-73
2023/09/18 13:03:41;;;;;;;11.48;10.65;;;;;;;;;;4968107;28;20080;-73
2023/09/18 13:06:12;;;;;;;10.82;10.13;;;;;;;;;;4973833;28;20650;-72
2023/09/18 13:08:38;;;;;;;11.20;10.50;;;;;;;;;;4964994;28;20121;-72
2023/09/18 13:11:04;;;;;;;10.80;10.10;;;;;;;;;;4964959;28;20038;-73
2023/09/18 13:13:30;;;;;;;10.98;9.90;;;;;;;;;;4965594;28;20139;-73
2023/09/18 13:16:00;;;;;;;10.15;9.43;;;;;;;;;;4966803;28;20069;-73
2023/09/18 13:18:26;;;;;;;10.00;9.30;;;;;;;;;;4970547;28;20158;-71
2023/09/18 13:20:53;;;;;;;10.18;9.48;;;;;;;;;;4976560;28;20034;-73
2023/09/18 13:23:19;;;;;;;10.50;9.50;;;;;;;;;;4973927;28;20042;-72
2023/09/18 13:25:46;;;;;;;10.50;9.63;;;;;;;;;;4972161;28;20053;-73
2023/09/18 13:28:13;;;;;;;10.35;9.68;;;;;;;;;;4972338;28;20026;-74
2023/09/18 13:30:41;;;;;;;10.75;9.90;;;;;;;;;;4973174;28;20143;-72
2023/09/18 13:33:10;;;;;;;10.75;10.00;;;;;;;;;;4970475;28;20034;-73
2023/09/18 13:35:37;;;;;;;11.00;10.20;;;;;;;;;;4969301;28;20047;-73
2023/09/18 13:38:05;;;;;;;11.02;10.30;;;;;;;;;;4999401;28;20047;-73
2023/09/18 13:40:33;;;;;;;10.40;9.70;;;;;;;;;;4991219;28;20046;-73
2023/09/18 13:42:59;;;;;;;10.43;9.68;;;;;;;;;;4968698;28;20041;-73
2023/09/18 13:45:25;;;;;;;10.18;9.43;;;;;;;;;;4969243;28;20698;-73
2023/09/18 13:47:50;;;;;;;10.18;9.30;;;;;;;;;;4998293;28;20037;-73
2023/09/18 13:50:16;;;;;;;10.00;9.30;;;;;;;;;;4967445;28;20128;-73
2023/09/18 13:52:42;;;;;;;9.77;9.02;;;;;;;;;;4981768;28;20093;-73
2023/09/18 13:55:08;;;;;;;10.48;9.50;;;;;;;;;;4973992;28;20451;-73
2023/09/18 13:57:34;;;;;;;10.18;9.45;;;;;;;;;;4971957;28;20575;-73
2023/09/18 14:00:02;;;;;;;9.70;9.00;;;;;;;;;;4969708;28;20039;-73
2023/09/18 14:02:39;;;;;;;10.20;9.27;;;;;;;;;;4967872;28;20054;-73
2023/09/18 14:05:05;;;;;;;9.65;9.05;;;;;;;;;;4975241;28;20046;-73
2023/09/18 14:07:31;;;;;;;10.18;9.18;;;;;;;;;;4977000;28;20026;-73
2023/09/18 14:09:58;;;;;;;8.80;8.30;;;;;;;;;;4972984;28;20077;-73
2023/09/18 14:12:27;;;;;;;9.27;8.65;;;;;;;;;;4978207;28;20053;-74
2023/09/18 14:14:53;;;;;;;9.00;8.30;;;;;;;;;;4963487;28;20031;-72
2023/09/18 14:17:21;;;;;;;8.98;8.27;;;;;;;;;;4967413;28;20526;-73
2023/09/18 14:19:47;;;;;;;8.83;8.13;;;;;;;;;;4964447;28;20045;-73
2023/09/18 14:22:13;;;;;;;8.68;8.10;;;;;;;;;;4968682;28;20089;-73
2023/09/18 14:24:39;;;;;;;9.75;8.95;;;;;;;;;;4996914;28;20046;-73
2023/09/18 14:27:06;;;;;;;8.75;8.15;;;;;;;;;;4980444;28;20046;-74
2023/09/18 14:29:32;;;;;;;9.25;8.55;;;;;;;;;;4966111;28;20042;-73
2023/09/18 14:31:58;;;;;;;9.10;8.40;;;;;;;;;;4968287;28;20404;-73